Terminal Aerodrome Forecast
Issued by NWS Topeka, KS

Home | Current Version | Previous Version | Text Only | Print | Product List | Glossary On
Versions: 1 2 3 4 5 6 7 8 9 10 11 12 13 14 15 16
223
FTUS43 KTOP 282240 AAA
TAFTOP
TAF AMD
KTOP 282240Z 2823/2918 01009KT P6SM OVC009
     FM290600 01011KT 6SM -SHRA OVC008
     FM291200 03012G23KT 5SM RA OVC006=

USA.gov is the U.S. government's official web portal to all federal, state and local government web resources and services.